Terminal Aerodrome Forecast
Issued by NWS

Home | Current Version | Previous Version | Text Only | Print | Product List | Glossary On
Versions: 1 2 3 4 5 6 7 8 9 10 11 12 13 14 15 16
000
FTUS46 KPQR 251728
TAFONP
TAF
KONP 251728Z 2518/2618 20006KT P6SM VCSH SCT025 BKN035 BKN060
     FM252100 19007KT P6SM VCSH SCT035 BKN050
     FM260200 VRB04KT P6SM SCT060 BKN200
     FM260600 16006KT P6SM SCT060 BKN100
     FM261000 14008KT P6SM -RA BKN035 OVC060=

USA.gov is the U.S. government's official web portal to all federal, state and local government web resources and services.